Time;durP1;ratioP1;P1;durP2;ratioP2;P2;SDS_P1;SDS_P2;PMS_P1;PMS_P2;Temp;Humidity;BMP_temperature;BMP_pressure;BME280_temperature;BME280_humidity;BME280_pressure;Samples;Min_cycle;Max_cycle;Signal;HPM_P1;HPM_P2
2021/12/26 00:00:48;;;;;;;5.05;2.65;;;;;;;-142.18;100.00;53745.31;5075543;28;20121;-73
2021/12/26 00:03:23;;;;;;;5.90;2.90;;;;;;;-142.18;100.00;53888.81;5091392;28;20474;-73
2021/12/26 00:05:51;;;;;;;7.70;3.20;;;;;;;-142.18;100.00;53789.78;5092513;28;20056;-73
2021/12/26 00:08:20;;;;;;;5.20;2.92;;;;;;;-142.18;100.00;53826.16;5091458;28;20048;-73
2021/12/26 00:10:48;;;;;;;11.13;3.33;;;;;;;-142.18;100.00;53822.13;5091710;28;20051;-73
2021/12/26 00:13:18;;;;;;;4.88;2.53;;;;;;;-142.18;100.00;53820.09;5091923;28;20334;-73
2021/12/26 00:15:46;;;;;;;7.57;3.40;;;;;;;-142.18;100.00;53884.78;5075191;28;20122;-73
2021/12/26 00:18:13;;;;;;;4.82;2.70;;;;;;;-142.18;100.00;53953.50;5086769;28;20065;-73
2021/12/26 00:20:40;;;;;;;6.05;2.83;;;;;;;-142.18;100.00;53977.78;5070553;28;20140;-73
2021/12/26 00:23:08;;;;;;;5.10;2.95;;;;;;;-142.18;100.00;53915.09;5052161;27;20056;-73
2021/12/26 00:25:37;;;;;;;5.30;2.90;;;;;;;-142.18;100.00;53993.94;5069124;28;20063;-73
2021/12/26 00:28:05;;;;;;;6.40;3.03;;;;;;;-142.18;100.00;53993.94;5069281;28;20159;-73
2021/12/26 00:30:32;;;;;;;4.45;2.90;;;;;;;-142.18;100.00;54082.88;5068677;28;20053;-74
2021/12/26 00:33:00;;;;;;;4.68;2.90;;;;;;;-142.18;100.00;53979.78;5070277;28;20425;-73
2021/12/26 00:35:27;;;;;;;6.53;3.53;;;;;;;-142.18;100.00;54123.31;5069842;28;20088;-73
2021/12/26 00:37:56;;;;;;;6.10;3.42;;;;;;;-142.18;100.00;54042.47;5052998;27;20067;-73
2021/12/26 00:40:23;;;;;;;7.45;3.38;;;;;;;-142.18;100.00;54038.41;5070636;28;20061;-73
2021/12/26 00:42:53;;;;;;;6.60;3.13;;;;;;;-142.18;100.00;54040.44;5070374;28;20057;-73
2021/12/26 00:45:21;;;;;;;7.20;3.60;;;;;;;-142.18;100.00;54006.06;5071535;27;20710;-73
2021/12/26 00:47:56;;;;;;;7.70;3.40;;;;;;;-142.18;100.00;53997.97;5052883;28;20060;-73
2021/12/26 00:50:26;;;;;;;4.35;3.33;;;;;;;-142.18;100.00;53973.72;5052773;28;20056;-73
2021/12/26 00:52:53;;;;;;;5.80;2.97;;;;;;;-142.18;100.00;54026.28;5052651;27;20060;-73
2021/12/26 00:55:20;;;;;;;7.28;3.90;;;;;;;-142.18;100.00;54026.28;5070823;28;20071;-73
2021/12/26 00:57:49;;;;;;;7.63;4.00;;;;;;;-142.18;100.00;54062.66;5052658;28;20057;-73
2021/12/26 01:00:20;;;;;;;6.32;3.20;;;;;;;-142.18;100.00;54030.31;5052708;28;20057;-73
2021/12/26 01:02:49;;;;;;;6.70;3.00;;;;;;;-142.18;100.00;54082.88;5070117;28;20775;-73
2021/12/26 01:05:17;;;;;;;7.65;3.03;;;;;;;-142.18;100.00;54070.75;5052189;28;20148;-73
2021/12/26 01:07:59;;;;;;;6.68;3.33;;;;;;;-142.18;100.00;54070.75;5052151;28;20836;-73
2021/12/26 01:10:32;;;;;;;6.15;2.95;;;;;;;-142.18;100.00;54070.75;5052328;28;20678;-73
2021/12/26 01:13:14;;;;;;;6.72;2.80;;;;;;;-142.18;100.00;54082.88;5070569;28;20093;-73
2021/12/26 01:15:43;;;;;;;4.35;2.92;;;;;;;-142.18;100.00;54097.03;5070499;28;20445;-73
2021/12/26 01:18:12;;;;;;;6.95;3.42;;;;;;;-142.18;100.00;54026.28;5069911;28;20057;-73
2021/12/26 01:20:45;;;;;;;8.63;3.38;;;;;;;-142.18;100.00;54076.81;5069925;28;20061;-73
2021/12/26 01:23:14;;;;;;;4.70;2.45;;;;;;;-142.18;100.00;54143.53;5073107;28;20763;-73
2021/12/26 01:25:41;;;;;;;5.07;3.00;;;;;;;-142.18;100.00;54143.53;5086878;27;20060;-73
2021/12/26 01:28:09;;;;;;;5.93;2.83;;;;;;;-142.18;100.00;54123.31;5070388;28;20065;-73
2021/12/26 01:30:38;;;;;;;4.90;3.00;;;;;;;-142.18;100.00;54117.25;5069173;28;20082;-73
2021/12/26 01:33:12;;;;;;;8.20;4.03;;;;;;;-142.18;100.00;54113.22;5137543;27;20054;-73
2021/12/26 01:35:40;;;;;;;8.10;4.35;;;;;;;-142.18;100.00;54105.13;5118955;27;20444;-73
2021/12/26 01:38:13;;;;;;;7.93;3.78;;;;;;;-142.18;100.00;54062.66;5049232;28;20071;-73
2021/12/26 01:40:43;;;;;;;5.80;3.38;;;;;;;-142.18;100.00;54062.66;5049730;28;20478;-73
2021/12/26 01:43:26;;;;;;;5.70;2.90;;;;;;;-142.18;100.00;54030.31;5117548;27;20145;-73
2021/12/26 01:45:53;;;;;;;5.43;3.35;;;;;;;-142.18;100.00;54082.88;5049954;28;20095;-73
2021/12/26 01:48:21;;;;;;;6.50;3.35;;;;;;;-142.18;100.00;54066.72;5050080;28;20148;-73
2021/12/26 01:50:51;;;;;;;6.95;3.10;;;;;;;-142.18;100.00;54086.94;5118441;27;20069;-73
2021/12/26 01:53:23;;;;;;;10.90;5.45;;;;;;;-142.18;100.00;54030.31;5049363;28;20086;-73
2021/12/26 01:55:52;;;;;;;11.63;6.85;;;;;;;-142.18;100.00;54046.50;5048726;28;20513;-73
2021/12/26 01:58:27;;;;;;;9.82;4.82;;;;;;;-142.18;100.00;54014.16;5118277;27;20127;-73
2021/12/26 02:01:08;;;;;;;13.00;5.28;;;;;;;-142.18;100.00;54054.59;5155715;27;20756;-73
2021/12/26 02:03:36;;;;;;;7.93;3.95;;;;;;;-142.18;100.00;54097.03;5122082;27;20387;-73
2021/12/26 02:06:05;;;;;;;13.18;5.60;;;;;;;-142.18;100.00;54086.94;5121869;27;20064;-73
2021/12/26 02:08:34;;;;;;;10.70;4.47;;;;;;;-142.18;100.00;54113.22;5121016;27;20061;-73
2021/12/26 02:11:02;;;;;;;9.95;5.07;;;;;;;-142.18;100.00;54074.81;5122052;27;20058;-74
2021/12/26 02:13:30;;;;;;;7.25;5.30;;;;;;;-142.18;100.00;54078.84;5163624;27;20059;-72
2021/12/26 02:16:00;;;;;;;6.68;4.07;;;;;;;-142.18;100.00;54078.84;5072691;27;20061;-71
2021/12/26 02:18:27;;;;;;;7.78;3.97;;;;;;;-142.18;100.00;54123.31;5064883;28;20381;-73
2021/12/26 02:28:44;;;;;;;7.32;2.88;;;;;;;-142.18;100.00;54236.53;5099423;28;20401;-74
2021/12/26 02:31:14;;;;;;;4.93;3.13;;;;;;;-142.18;100.00;54196.09;5059235;27;20505;-73
2021/12/26 02:33:43;;;;;;;5.43;3.50;;;;;;;-142.18;100.00;54175.88;5052507;28;20134;-73
2021/12/26 02:36:10;;;;;;;4.63;2.63;;;;;;;-142.18;100.00;54242.59;5053470;28;20119;-74
2021/12/26 02:38:42;;;;;;;7.78;3.58;;;;;;;-142.18;100.00;54216.31;5052623;28;20114;-73
2021/12/26 02:41:10;;;;;;;7.40;3.20;;;;;;;-142.18;100.00;54159.72;5052484;28;20076;-73
2021/12/26 02:43:38;;;;;;;6.57;3.28;;;;;;;-142.18;100.00;54230.47;5121045;27;20058;-73
2021/12/26 02:46:07;;;;;;;5.68;3.42;;;;;;;-142.18;100.00;54228.44;5052033;28;20065;-73
2021/12/26 02:48:35;;;;;;;6.60;2.95;;;;;;;-142.18;100.00;54208.22;5051933;28;20061;-73
2021/12/26 02:51:05;;;;;;;10.85;3.53;;;;;;;-142.18;100.00;54222.38;5120885;27;20066;-73
2021/12/26 02:53:34;;;;;;;6.18;3.30;;;;;;;-142.18;100.00;54198.13;5052248;28;20788;-73
2021/12/26 02:56:04;;;;;;;5.75;3.53;;;;;;;-142.18;100.00;54234.50;5053363;28;20057;-74
2021/12/26 02:58:33;;;;;;;5.70;3.70;;;;;;;-142.18;100.00;54167.78;5121223;27;20837;-73
2021/12/26 03:01:07;;;;;;;6.18;3.83;;;;;;;-142.18;100.00;54121.28;5122061;27;20080;-74
2021/12/26 03:03:36;;;;;;;6.80;3.55;;;;;;;-142.18;100.00;54175.88;5052703;28;20152;-74
2021/12/26 03:06:19;;;;;;;8.07;3.80;;;;;;;-142.18;100.00;54183.97;5053021;27;20061;-73
2021/12/26 03:08:49;;;;;;;5.32;3.40;;;;;;;-142.18;100.00;54192.06;5051335;28;20106;-74
2021/12/26 03:11:17;;;;;;;6.53;3.08;;;;;;;-142.18;100.00;54188.00;5119947;27;20757;-73
2021/12/26 03:13:44;;;;;;;8.98;4.43;;;;;;;-142.18;100.00;54287.06;5059645;27;20091;-73
2021/12/26 03:16:12;;;;;;;7.32;3.42;;;;;;;-142.18;100.00;54190.03;5051265;28;20049;-74
2021/12/26 03:18:39;;;;;;;5.43;3.45;;;;;;;-142.18;100.00;54212.28;5049960;28;20068;-73
2021/12/26 03:21:06;;;;;;;8.20;4.07;;;;;;;-142.18;100.00;54181.94;5119253;27;20062;-74
2021/12/26 03:23:33;;;;;;;5.43;3.58;;;;;;;-142.18;100.00;54212.28;5050936;28;20110;-74
2021/12/26 03:26:06;;;;;;;8.77;4.70;;;;;;;-142.18;100.00;54151.63;5133979;27;20059;-74
2021/12/26 03:28:34;;;;;;;8.50;4.00;;;;;;;-142.18;100.00;54183.97;5134876;27;20106;-74
2021/12/26 03:31:06;;;;;;;8.50;4.68;;;;;;;-142.18;100.00;54212.28;5136172;27;20060;-73
2021/12/26 03:33:37;;;;;;;6.17;3.40;;;;;;;-142.18;100.00;54165.78;5137256;27;20820;-73
2021/12/26 03:36:04;;;;;;;5.38;3.38;;;;;;;-142.18;100.00;54254.72;5135970;27;20066;-74
2021/12/26 03:38:34;;;;;;;9.43;4.10;;;;;;;-142.18;100.00;54228.44;5135225;27;20494;-75
2021/12/26 03:41:05;;;;;;;5.47;3.92;;;;;;;-142.18;100.00;54226.41;5137999;27;20095;-73
2021/12/26 03:43:32;;;;;;;6.55;3.75;;;;;;;-142.18;100.00;54230.47;5136902;27;20142;-74
2021/12/26 03:45:59;;;;;;;6.65;3.78;;;;;;;-142.18;100.00;54614.59;5136100;27;20055;-74
2021/12/26 03:48:27;;;;;;;5.45;3.28;;;;;;;-142.18;100.00;54224.41;5136748;27;20116;-73
2021/12/26 03:50:55;;;;;;;8.00;3.58;;;;;;;-142.18;100.00;54220.34;5136910;27;20059;-73
2021/12/26 03:53:22;;;;;;;8.20;4.10;;;;;;;-142.18;100.00;54175.88;5136309;27;20067;-73
2021/12/26 03:55:50;;;;;;;5.97;3.65;;;;;;;-142.18;100.00;54171.84;5136286;27;20502;-73
2021/12/26 03:58:17;;;;;;;5.57;3.47;;;;;;;-142.18;100.00;54186.00;5136665;27;20453;-73
2021/12/26 04:00:46;;;;;;;7.15;4.35;;;;;;;-142.18;100.00;54078.84;5136437;27;20785;-73
2021/12/26 04:03:15;;;;;;;7.03;3.88;;;;;;;-142.18;100.00;54135.44;5135956;27;20415;-73
2021/12/26 04:05:43;;;;;;;5.72;3.30;;;;;;;-142.18;100.00;54210.25;5136901;27;20083;-74
2021/12/26 04:08:09;;;;;;;5.18;3.25;;;;;;;-142.18;100.00;54220.34;5135347;27;20223;-73
2021/12/26 04:10:37;;;;;;;5.80;3.20;;;;;;;-142.18;100.00;54208.22;5135988;27;20056;-73
2021/12/26 04:13:04;;;;;;;6.07;3.05;;;;;;;-142.18;100.00;54232.47;5135243;27;20063;-73
2021/12/26 04:15:32;;;;;;;6.63;3.47;;;;;;;-142.18;100.00;54289.09;5135630;27;20413;-74
2021/12/26 04:18:00;;;;;;;5.00;3.20;;;;;;;-142.18;100.00;54374.00;5135879;27;20051;-74
2021/12/26 04:20:28;;;;;;;5.40;3.20;;;;;;;-142.18;100.00;54299.19;5135984;27;20082;-74
2021/12/26 04:22:57;;;;;;;6.22;3.50;;;;;;;-142.18;100.00;54272.91;5134184;27;20086;-73
2021/12/26 04:25:24;;;;;;;6.35;3.28;;;;;;;-142.18;100.00;54287.06;5135797;27;20124;-74
2021/12/26 04:27:51;;;;;;;6.40;3.45;;;;;;;-142.18;100.00;54246.63;5054886;27;20065;-73
2021/12/26 04:30:19;;;;;;;6.72;3.42;;;;;;;-142.18;100.00;54268.88;5119966;27;20463;-73
2021/12/26 04:32:46;;;;;;;7.53;3.58;;;;;;;-142.18;100.00;54268.88;5051697;28;20057;-73
2021/12/26 04:35:16;;;;;;;8.10;3.63;;;;;;;-142.18;100.00;54216.31;5051463;28;20065;-73
2021/12/26 04:37:44;;;;;;;5.03;3.15;;;;;;;-142.18;100.00;54386.13;5050745;28;20889;-74
2021/12/26 04:40:14;;;;;;;8.70;3.67;;;;;;;-142.18;100.00;54274.94;5120163;27;20463;-73
2021/12/26 04:42:43;;;;;;;5.70;3.38;;;;;;;-142.18;100.00;54272.91;5052215;28;20459;-73
2021/12/26 04:45:10;;;;;;;7.65;3.92;;;;;;;-142.18;100.00;54313.34;5050914;28;20105;-73
2021/12/26 04:47:39;;;;;;;9.63;4.35;;;;;;;-142.18;100.00;54303.25;5050941;28;20054;-73
2021/12/26 04:50:34;;;;;;;7.68;4.68;;;;;;;-142.18;100.00;54248.66;5119279;27;20070;-74
2021/12/26 04:53:03;;;;;;;9.93;5.45;;;;;;;-142.18;100.00;54272.91;5120247;27;20095;-74
2021/12/26 04:55:34;;;;;;;8.10;3.92;;;;;;;-142.18;100.00;54266.84;5050107;28;20061;-74
2021/12/26 04:58:04;;;;;;;7.05;4.03;;;;;;;-142.18;100.00;54264.84;5050483;28;20057;-73
2021/12/26 05:00:32;;;;;;;9.05;3.92;;;;;;;-142.18;100.00;54285.03;5050716;28;20069;-74
2021/12/26 05:03:03;;;;;;;6.72;3.53;;;;;;;-142.18;100.00;54216.31;5051738;27;20068;-74
2021/12/26 05:05:32;;;;;;;8.05;3.50;;;;;;;-142.18;100.00;54186.00;5051881;28;20049;-74
2021/12/26 05:08:03;;;;;;;5.03;3.17;;;;;;;-142.18;100.00;54216.31;5051534;28;20816;-73
2021/12/26 05:10:30;;;;;;;7.43;3.90;;;;;;;-142.18;100.00;54222.38;5121185;27;20065;-73
2021/12/26 05:13:00;;;;;;;7.63;3.85;;;;;;;-142.18;100.00;54234.50;5051853;28;20061;-73
2021/12/26 05:15:30;;;;;;;;;;;;;;;-142.18;100.00;54220.34;5051299;27;20068;-73
2021/12/26 05:17:58;;;;;;;10.05;4.60;;;;;;;-142.18;100.00;54204.19;5051067;27;19925;-73
2021/12/26 05:20:26;;;;;;;8.52;4.38;;;;;;;-142.18;100.00;54194.06;5119519;27;20065;-74
2021/12/26 05:22:56;;;;;;;10.40;5.10;;;;;;;-142.18;100.00;54186.00;5103078;27;20122;-73
2021/12/26 05:25:27;;;;;;;12.80;5.38;;;;;;;-142.18;100.00;54204.19;5050306;28;20057;-73
2021/12/26 05:27:55;;;;;;;7.75;4.35;;;;;;;-142.18;100.00;54192.06;5134257;27;20506;-74
2021/12/26 05:30:23;;;;;;;8.60;4.70;;;;;;;-142.18;100.00;54190.03;5134684;27;20121;-73
2021/12/26 05:32:51;;;;;;;8.20;4.25;;;;;;;-142.18;100.00;54181.94;5134830;27;20063;-73
2021/12/26 05:35:19;;;;;;;8.10;4.30;;;;;;;-142.18;100.00;54165.78;5135394;27;20059;-73
2021/12/26 05:37:46;;;;;;;8.15;4.60;;;;;;;-142.18;100.00;54234.50;5135842;27;20101;-73
2021/12/26 05:40:15;;;;;;;8.23;4.68;;;;;;;-142.18;100.00;54192.06;5135305;27;20055;-74
2021/12/26 05:42:46;;;;;;;12.27;5.38;;;;;;;-142.18;100.00;54175.88;5134959;27;20963;-73
2021/12/26 05:45:15;;;;;;;10.73;5.15;;;;;;;-142.18;100.00;54171.84;5134286;27;20055;-74
2021/12/26 05:47:41;;;;;;;11.98;5.88;;;;;;;-142.18;100.00;54171.84;5133772;27;20437;-73
2021/12/26 05:50:11;;;;;;;10.80;5.10;;;;;;;-142.18;100.00;54143.53;5135240;27;20043;-73
2021/12/26 05:52:42;;;;;;;8.77;4.78;;;;;;;-142.18;100.00;54161.72;5134771;27;20059;-73
2021/12/26 05:55:09;;;;;;;10.68;5.57;;;;;;;-142.18;100.00;54171.84;5134861;27;20212;-74
2021/12/26 05:57:36;;;;;;;9.23;4.85;;;;;;;-142.18;100.00;54153.66;5132648;27;20047;-73
2021/12/26 06:00:10;;;;;;;9.15;4.65;;;;;;;-142.18;100.00;54109.16;5133381;27;20162;-71
2021/12/26 06:02:37;;;;;;;10.07;5.30;;;;;;;-142.18;100.00;54143.53;5134482;27;20066;-72
2021/12/26 06:05:04;;;;;;;11.93;5.40;;;;;;;-142.18;100.00;54107.16;5118772;27;20060;-72
2021/12/26 06:07:32;;;;;;;10.30;5.43;;;;;;;-142.18;100.00;54097.03;5114462;28;20060;-72
2021/12/26 06:10:00;;;;;;;12.48;5.63;;;;;;;-142.18;100.00;54115.22;5095850;28;20056;-72
2021/12/26 06:12:28;;;;;;;12.40;6.03;;;;;;;-142.18;100.00;54131.41;5113169;28;20060;-72
2021/12/26 06:14:56;;;;;;;11.13;6.10;;;;;;;-142.18;100.00;54072.78;5113336;28;20450;-72
2021/12/26 06:17:24;;;;;;;14.20;7.35;;;;;;;-142.18;100.00;54064.69;5094672;28;20062;-72
2021/12/26 06:19:51;;;;;;;9.30;6.05;;;;;;;-142.18;100.00;54095.03;5112497;27;20052;-72
2021/12/26 06:22:18;;;;;;;10.40;6.25;;;;;;;-142.18;100.00;54062.66;5112804;28;20179;-72
2021/12/26 06:24:46;;;;;;;11.20;5.78;;;;;;;-142.18;100.00;54010.13;5112611;28;20059;-72
2021/12/26 06:27:13;;;;;;;11.15;6.10;;;;;;;-142.18;100.00;54032.34;5112349;28;20147;-72
2021/12/26 06:29:40;;;;;;;12.23;6.60;;;;;;;-142.18;100.00;54097.03;5112057;28;20070;-72
2021/12/26 06:32:08;;;;;;;11.70;6.45;;;;;;;-142.18;100.00;53993.94;5112276;28;20111;-72
2021/12/26 06:34:35;;;;;;;13.57;6.82;;;;;;;-142.18;100.00;54220.34;5112275;28;20146;-71
2021/12/26 06:37:02;;;;;;;15.52;7.47;;;;;;;-142.18;100.00;54066.72;5112686;28;20086;-72
2021/12/26 06:39:28;;;;;;;19.48;9.15;;;;;;;-142.18;100.00;53977.78;5112317;28;20064;-72
2021/12/26 06:41:56;;;;;;;17.10;8.02;;;;;;;-142.18;100.00;54026.28;5095890;28;20056;-72
2021/12/26 06:44:23;;;;;;;17.73;7.72;;;;;;;-142.18;100.00;54038.41;5113219;28;20060;-72
2021/12/26 06:46:51;;;;;;;11.95;6.55;;;;;;;-142.18;100.00;54014.16;5117079;27;20143;-72
2021/12/26 06:49:18;;;;;;;10.73;6.10;;;;;;;-142.18;100.00;54101.09;5116578;28;20070;-71
2021/12/26 06:51:45;;;;;;;14.55;7.32;;;;;;;-142.18;100.00;54054.59;5098718;28;20055;-71
2021/12/26 06:54:12;;;;;;;10.57;6.50;;;;;;;-142.18;100.00;54123.31;5117433;28;20074;-71
2021/12/26 06:56:41;;;;;;;12.27;6.15;;;;;;;-142.18;100.00;54283.03;5116674;28;20067;-71
2021/12/26 06:59:08;;;;;;;21.15;10.40;;;;;;;-142.18;100.00;53989.91;5059993;28;20169;-72
2021/12/26 07:01:36;;;;;;;14.48;7.28;;;;;;;-142.18;100.00;54032.34;5014825;28;20455;-72
2021/12/26 07:04:05;;;;;;;13.73;7.10;;;;;;;-142.18;100.00;54002.03;5032556;28;20065;-72
2021/12/26 07:06:33;;;;;;;12.63;6.60;;;;;;;-142.18;100.00;53985.84;5015637;28;20119;-72
2021/12/26 07:09:00;;;;;;;13.00;6.47;;;;;;;-142.18;100.00;53981.81;5033414;28;20771;-72
2021/12/26 07:11:28;;;;;;;12.65;6.20;;;;;;;-142.18;100.00;54002.03;5016531;28;20443;-72
2021/12/26 07:13:56;;;;;;;14.68;6.43;;;;;;;-142.18;100.00;53987.88;5033069;28;20068;-72
2021/12/26 07:16:24;;;;;;;11.32;6.30;;;;;;;-142.18;100.00;54042.47;5033183;28;20062;-72
2021/12/26 07:18:52;;;;;;;11.50;6.10;;;;;;;-142.18;100.00;53939.38;5032663;28;20097;-72
2021/12/26 07:21:20;;;;;;;15.15;6.90;;;;;;;-142.18;100.00;53985.84;5033030;28;20072;-72
2021/12/26 07:23:47;;;;;;;17.33;7.30;;;;;;;-142.18;100.00;53977.78;5014780;28;20141;-72
2021/12/26 07:26:14;;;;;;;18.77;8.38;;;;;;;-142.18;100.00;53981.81;5032160;28;20072;-72
2021/12/26 07:28:41;;;;;;;15.55;8.25;;;;;;;-142.18;100.00;54026.28;5032946;28;20058;-73
2021/12/26 07:31:08;;;;;;;16.58;8.48;;;;;;;-142.18;100.00;54014.16;5015255;28;20444;-72
2021/12/26 07:33:36;;;;;;;37.67;17.30;;;;;;;-142.18;100.00;53955.53;5032231;28;20061;-73
2021/12/26 07:36:03;;;;;;;32.67;14.25;;;;;;;-142.18;100.00;53955.53;5031330;28;20448;-72
2021/12/26 07:38:30;;;;;;;41.00;18.20;;;;;;;-142.18;100.00;54010.13;5039987;28;20075;-73
2021/12/26 07:41:17;;;;;;;38.25;17.02;;;;;;;-142.18;100.00;53925.22;5051325;27;20053;-73
2021/12/26 07:43:45;;;;;;;28.58;12.70;;;;;;;-142.18;100.00;53945.44;5052245;28;20085;-72
2021/12/26 07:46:12;;;;;;;26.33;11.52;;;;;;;-142.18;100.00;53913.09;5052973;28;20741;-72
2021/12/26 07:48:39;;;;;;;28.73;12.90;;;;;;;-142.18;100.00;53888.81;5050977;28;20502;-72
2021/12/26 07:51:06;;;;;;;22.55;10.85;;;;;;;-142.18;100.00;53884.78;5033955;28;20497;-72
2021/12/26 07:53:34;;;;;;;27.85;14.00;;;;;;;-142.18;100.00;53852.44;5051740;28;20069;-72
2021/12/26 07:56:01;;;;;;;17.00;8.70;;;;;;;-142.18;100.00;53898.94;5050497;28;20097;-72
2021/12/26 07:58:27;;;;;;;17.63;8.73;;;;;;;-142.18;100.00;53816.06;5050734;28;20066;-72
2021/12/26 08:00:55;;;;;;;15.35;8.18;;;;;;;-142.18;100.00;53832.22;5050992;28;20072;-73
2021/12/26 08:03:25;;;;;;;13.93;7.75;;;;;;;-142.18;100.00;53787.75;5052134;28;20488;-73
2021/12/26 08:05:52;;;;;;;24.83;10.80;;;;;;;-142.18;100.00;53830.19;5034462;28;20076;-72
2021/12/26 08:08:20;;;;;;;32.40;13.57;;;;;;;-142.18;100.00;53832.22;5051785;28;20350;-72
2021/12/26 08:10:47;;;;;;;47.45;18.13;;;;;;;-142.18;100.00;53735.19;5052155;28;20447;-72
2021/12/26 08:13:16;;;;;;;31.38;12.50;;;;;;;-142.18;100.00;53771.59;5033887;28;20118;-72
2021/12/26 08:15:44;;;;;;;23.30;10.70;;;;;;;-142.18;100.00;53812.00;5038390;28;20061;-73
2021/12/26 08:18:12;;;;;;;18.13;8.85;;;;;;;-142.18;100.00;53652.31;5039224;28;20149;-73
2021/12/26 08:20:39;;;;;;;17.23;8.27;;;;;;;-142.18;100.00;53686.69;5051267;28;20057;-73
2021/12/26 08:23:07;;;;;;;16.15;8.63;;;;;;;-142.18;100.00;53642.22;5052533;28;20072;-73
2021/12/26 08:25:34;;;;;;;13.23;7.55;;;;;;;-142.18;100.00;53628.06;5034458;28;20061;-73
2021/12/26 08:28:03;;;;;;;12.85;6.72;;;;;;;-142.18;100.00;53706.91;5034022;28;20068;-72
2021/12/26 08:30:30;;;;;;;13.77;7.35;;;;;;;-142.18;100.00;53753.38;5052691;28;20058;-73
2021/12/26 08:33:04;;;;;;;16.17;9.13;;;;;;;-142.18;100.00;53684.66;5051537;28;20065;-73
2021/12/26 08:35:33;;;;;;;17.35;8.85;;;;;;;-142.18;100.00;53662.44;5051697;27;20061;-73
2021/12/26 08:38:01;;;;;;;16.70;8.65;;;;;;;-142.18;100.00;53622.00;5034125;28;20054;-72
2021/12/26 08:40:28;;;;;;;18.25;9.85;;;;;;;-142.18;100.00;53678.59;5051346;28;20421;-73
2021/12/26 08:42:56;;;;;;;21.52;10.60;;;;;;;-142.18;100.00;53694.78;5051583;28;20418;-73
2021/12/26 08:45:25;;;;;;;18.63;10.35;;;;;;;-142.18;100.00;53617.97;5033261;28;20057;-72
2021/12/26 08:47:55;;;;;;;19.17;10.02;;;;;;;-142.18;100.00;53597.75;5052100;28;20087;-72
2021/12/26 08:50:25;;;;;;;18.20;9.15;;;;;;;-142.18;100.00;53622.00;5051486;28;20072;-72
2021/12/26 08:52:54;;;;;;;15.18;7.97;;;;;;;-142.18;100.00;53581.56;5050869;28;20072;-72
2021/12/26 08:55:23;;;;;;;18.27;9.88;;;;;;;-142.18;100.00;53678.59;5051366;28;20466;-72
2021/12/26 08:57:52;;;;;;;25.33;13.18;;;;;;;-142.18;100.00;53609.88;5050671;28;20061;-72
2021/12/26 09:00:23;;;;;;;14.45;7.95;;;;;;;-142.18;100.00;53662.44;5033098;28;20091;-72
2021/12/26 09:02:52;;;;;;;14.30;7.03;;;;;;;-142.18;100.00;53609.88;5034604;28;20466;-72
2021/12/26 09:05:19;;;;;;;14.13;7.78;;;;;;;-142.18;100.00;53573.50;5049933;28;20057;-72
2021/12/26 09:07:46;;;;;;;16.50;8.38;;;;;;;-142.18;100.00;53611.91;5031742;28;20058;-72
2021/12/26 09:10:17;;;;;;;16.63;8.55;;;;;;;-142.18;100.00;53520.94;5049799;28;20143;-72
2021/12/26 09:12:44;;;;;;;13.68;7.57;;;;;;;-142.18;100.00;53535.09;5032867;28;20047;-72
2021/12/26 09:15:13;;;;;;;16.70;8.75;;;;;;;-142.18;100.00;53593.72;5071267;27;20444;-73
2021/12/26 09:17:41;;;;;;;15.07;8.93;;;;;;;-142.18;100.00;53488.59;5133241;27;20073;-72
2021/12/26 09:20:09;;;;;;;17.00;8.20;;;;;;;-142.18;100.00;53541.16;5039974;27;20452;-72
2021/12/26 09:22:37;;;;;;;11.80;6.68;;;;;;;-142.18;100.00;53561.38;5034000;28;20056;-72
2021/12/26 09:25:05;;;;;;;14.63;8.00;;;;;;;-142.18;100.00;53565.41;5049915;28;20061;-73
2021/12/26 09:27:33;;;;;;;15.38;7.85;;;;;;;-142.18;100.00;53743.28;5050381;28;20500;-73
2021/12/26 09:30:01;;;;;;;15.23;8.02;;;;;;;-142.18;100.00;53506.78;5050039;28;20136;-73
2021/12/26 09:32:27;;;;;;;15.80;7.97;;;;;;;-142.18;100.00;53464.34;5049668;28;20077;-73
2021/12/26 09:34:55;;;;;;;17.10;8.38;;;;;;;-142.18;100.00;53496.69;5031211;28;20064;-73
2021/12/26 09:37:24;;;;;;;16.00;7.63;;;;;;;-142.18;100.00;53460.31;5049767;28;20086;-73
2021/12/26 09:39:52;;;;;;;16.65;8.63;;;;;;;-142.18;100.00;53512.84;5049324;28;20075;-73
2021/12/26 09:42:21;;;;;;;17.98;8.50;;;;;;;-142.18;100.00;53357.22;5049337;28;20080;-73
2021/12/26 09:44:49;;;;;;;16.25;8.18;;;;;;;-142.18;100.00;53476.47;5032412;28;20073;-73
2021/12/26 09:47:16;;;;;;;16.35;8.32;;;;;;;-142.18;100.00;53484.56;5032399;28;20064;-73
2021/12/26 09:49:43;;;;;;;18.02;9.30;;;;;;;-142.18;100.00;53472.44;5048803;28;20061;-73
2021/12/26 09:52:10;;;;;;;17.65;9.07;;;;;;;-142.18;100.00;53419.88;5032132;28;20107;-73
2021/12/26 09:54:38;;;;;;;16.77;9.02;;;;;;;-142.18;100.00;53444.13;5049433;28;20049;-73
2021/12/26 09:57:05;;;;;;;16.00;7.82;;;;;;;-142.18;100.00;53448.19;5032839;28;20057;-74
2021/12/26 09:59:34;;;;;;;16.83;8.65;;;;;;;-142.18;100.00;53335.00;5049217;27;20065;-73
2021/12/26 10:02:10;;;;;;;17.55;9.30;;;;;;;-142.18;100.00;53213.72;5030682;28;20061;-73
2021/12/26 10:04:49;;;;;;;15.13;8.05;;;;;;;-142.18;100.00;53434.03;5047944;28;20144;-73
2021/12/26 10:07:22;;;;;;;17.45;8.77;;;;;;;-142.18;100.00;53332.97;5031874;28;20386;-73
2021/12/26 10:09:51;;;;;;;14.40;8.45;;;;;;;-142.18;100.00;53266.28;5047380;28;20076;-72
2021/12/26 10:12:21;;;;;;;14.95;8.13;;;;;;;-142.18;100.00;53339.03;5031582;28;20065;-72
2021/12/26 10:14:54;;;;;;;16.05;8.77;;;;;;;-142.18;100.00;53108.63;5048600;28;20073;-73
2021/12/26 10:17:26;;;;;;;16.17;8.73;;;;;;;-142.18;100.00;53242.03;5032644;28;20164;-73
2021/12/26 10:20:06;;;;;;;18.00;8.98;;;;;;;-142.18;100.00;53165.22;5031807;28;20821;-73
2021/12/26 10:22:34;;;;;;;18.15;9.15;;;;;;;-142.18;100.00;53100.53;5032674;28;20053;-73
2021/12/26 10:25:14;;;;;;;16.35;8.27;;;;;;;-142.18;100.00;53060.13;5030364;28;20144;-73
2021/12/26 10:27:43;;;;;;;16.60;8.65;;;;;;;-142.18;100.00;53169.25;5014064;28;20119;-73
2021/12/26 10:30:15;;;;;;;19.33;9.63;;;;;;;-142.18;100.00;53033.84;5037688;28;20054;-73
2021/12/26 10:32:43;;;;;;;17.90;8.32;;;;;;;-142.18;100.00;53068.22;5034347;28;20439;-73
2021/12/26 10:35:16;;;;;;;18.65;9.23;;;;;;;-142.18;100.00;52789.31;5051888;28;20054;-73
2021/12/26 10:37:49;;;;;;;17.02;8.68;;;;;;;-142.18;100.00;52983.31;5018277;28;20061;-73
2021/12/26 10:40:26;;;;;;;20.38;9.32;;;;;;;-142.18;100.00;52700.41;5029333;28;20149;-73
2021/12/26 10:42:57;;;;;;;18.85;9.38;;;;;;;-142.18;100.00;52506.41;5107377;27;20054;-73
2021/12/26 10:45:29;;;;;;;14.85;8.23;;;;;;;-142.18;100.00;52781.22;5060064;27;20156;-73
2021/12/26 10:48:00;;;;;;;22.00;9.75;;;;;;;-142.18;100.00;52597.34;5012601;28;20115;-73
2021/12/26 10:50:30;;;;;;;18.05;9.40;;;;;;;-142.18;100.00;52397.28;5029801;28;20054;-73
2021/12/26 10:53:06;;;;;;;16.50;8.65;;;;;;;-142.18;100.00;52427.59;5029627;28;20058;-73
2021/12/26 10:55:51;;;;;;;17.60;9.30;;;;;;;-142.18;100.00;52502.38;5012517;28;20058;-73
2021/12/26 10:58:21;;;;;;;18.65;10.00;;;;;;;-142.18;100.00;52417.50;5030439;28;20375;-73
2021/12/26 11:00:54;;;;;;;19.13;9.88;;;;;;;-142.18;100.00;52447.81;5030433;28;20053;-73
2021/12/26 11:03:24;;;;;;;19.73;9.48;;;;;;;-142.18;100.00;52282.09;5018392;28;20464;-74
2021/12/26 11:06:03;;;;;;;18.63;9.73;;;;;;;-142.18;100.00;52255.84;5050736;28;20114;-73
2021/12/26 11:08:32;;;;;;;16.70;8.55;;;;;;;-142.18;100.00;52385.16;5033456;28;20077;-73
2021/12/26 11:11:16;;;;;;;16.90;8.75;;;;;;;-142.18;100.00;52292.22;5050062;28;20065;-73
2021/12/26 11:13:46;;;;;;;17.23;8.85;;;;;;;-142.18;100.00;52524.59;5033121;28;20088;-73
2021/12/26 11:16:16;;;;;;;18.92;9.52;;;;;;;-142.18;100.00;52542.78;5043656;28;20064;-73
2021/12/26 11:18:53;;;;;;;20.13;10.18;;;;;;;-142.18;100.00;52267.97;5030370;28;20103;-73
2021/12/26 11:21:25;;;;;;;20.92;10.10;;;;;;;-142.18;100.00;52455.88;5030022;28;20068;-73